Time;durP1;ratioP1;P1;durP2;ratioP2;P2;SDS_P1;SDS_P2;PMS_P1;PMS_P2;Temp;Humidity;BMP_temperature;BMP_pressure;BME280_temperature;BME280_humidity;BME280_pressure;Samples;Min_cycle;Max_cycle;Signal;HPM_P1;HPM_P2
2023/07/01 00:01:55;;;;;;;5.10;1.80;;;24.60;69.40;;;;;;7759581;22;20018;-55
2023/07/01 00:04:59;;;;;;;6.70;1.52;;;24.60;69.70;;;;;;7760021;22;20018;-54
2023/07/01 00:08:00;;;;;;;3.70;1.60;;;24.50;69.80;;;;;;7761301;22;20060;-55
2023/07/01 00:11:03;;;;;;;4.32;2.15;;;24.70;70.10;;;;;;7751036;22;20016;-52
2023/07/01 00:14:05;;;;;;;6.28;2.28;;;24.60;69.50;;;;;;7750933;22;20015;-55
2023/07/01 00:17:12;;;;;;;6.72;2.35;;;24.50;69.70;;;;;;7760700;22;20018;-54
2023/07/01 00:20:13;;;;;;;9.18;2.65;;;24.30;69.60;;;;;;7757096;22;20524;-55
2023/07/01 00:23:17;;;;;;;8.38;3.13;;;24.60;70.00;;;;;;7760469;22;20016;-55
2023/07/01 00:26:19;;;;;;;9.27;3.05;;;24.30;69.80;;;;;;7759484;22;20039;-53
2023/07/01 00:29:21;;;;;;;6.35;2.70;;;24.50;70.20;;;;;;7758513;22;20443;-54
2023/07/01 00:32:23;;;;;;;9.13;2.30;;;24.70;70.10;;;;;;7762290;22;20039;-55
2023/07/01 00:35:25;;;;;;;6.22;1.98;;;24.50;70.20;;;;;;7761533;22;20012;-54
2023/07/01 00:38:27;;;;;;;3.55;1.67;;;24.70;70.10;;;;;;7758105;22;20016;-54
2023/07/01 00:41:31;;;;;;;5.13;2.15;;;24.60;70.20;;;;;;7761564;22;20007;-53
2023/07/01 00:44:33;;;;;;;3.60;1.70;;;24.50;69.90;;;;;;7762215;22;20019;-52
2023/07/01 00:47:34;;;;;;;2.97;1.58;;;24.60;70.10;;;;;;7755879;22;20022;-52
2023/07/01 00:50:41;;;;;;;4.07;1.40;;;24.60;70.30;;;;;;7761826;22;20088;-48
2023/07/01 00:53:43;;;;;;;2.95;1.35;;;24.50;70.00;;;;;;7762359;22;20012;-53
2023/07/01 00:56:49;;;;;;;3.40;1.80;;;24.40;69.70;;;;;;7738267;22;20018;-53
2023/07/01 00:59:51;;;;;;;4.55;1.77;;;24.90;69.50;;;;;;7760697;22;20038;-51
2023/07/01 01:03:04;;;;;;;6.95;1.92;;;24.50;69.90;;;;;;7758076;22;20016;-52
2023/07/01 01:06:16;;;;;;;4.07;1.98;;;24.70;70.40;;;;;;7762196;22;20071;-50
2023/07/01 01:09:22;;;;;;;4.97;1.70;;;24.60;70.00;;;;;;7769323;22;20020;-49
2023/07/01 01:12:29;;;;;;;6.55;1.88;;;24.30;69.90;;;;;;7779050;22;20015;-50
2023/07/01 01:15:32;;;;;;;6.68;2.20;;;24.70;70.00;;;;;;7784673;22;20015;-48
2023/07/01 01:18:34;;;;;;;7.10;3.05;;;24.70;70.20;;;;;;7780825;22;20018;-49
2023/07/01 01:21:37;;;;;;;6.72;2.38;;;24.50;70.10;;;;;;7796619;22;20011;-50
2023/07/01 01:24:42;;;;;;;4.65;2.03;;;24.70;70.20;;;;;;7789997;22;20083;-46
2023/07/01 01:27:44;;;;;;;6.15;2.17;;;24.60;70.20;;;;;;7842665;22;20012;-50
2023/07/01 01:30:47;;;;;;;6.82;2.40;;;24.70;70.70;;;;;;7785392;22;20015;-50
2023/07/01 01:33:49;;;;;;;6.53;2.05;;;24.50;70.20;;;;;;7778864;22;20657;-50
2023/07/01 01:36:54;;;;;;;4.32;1.67;;;24.60;70.50;;;;;;7778047;22;20012;-48
2023/07/01 01:39:59;;;;;;;5.63;2.00;;;24.70;70.30;;;;;;7779813;22;20495;-45
2023/07/01 01:43:11;;;;;;;5.78;1.75;;;24.60;70.20;;;;;;7759666;22;20090;-46
2023/07/01 01:46:17;;;;;;;6.68;2.05;;;24.70;70.30;;;;;;7759347;22;20483;-52
2023/07/01 01:49:20;;;;;;;5.72;2.08;;;24.50;70.10;;;;;;7784077;22;20064;-48
2023/07/01 01:52:22;;;;;;;6.85;2.30;;;24.60;70.30;;;;;;7784307;22;20012;-47
2023/07/01 01:55:25;;;;;;;6.65;2.60;;;24.70;70.10;;;;;;7789810;22;20012;-48
2023/07/01 01:58:29;;;;;;;5.82;2.00;;;24.60;70.20;;;;;;7784168;22;20072;-47
2023/07/01 02:01:30;;;;;;;4.90;1.77;;;24.60;70.40;;;;;;7784909;22;20036;-48
2023/07/01 02:04:33;;;;;;;6.15;2.00;;;24.50;70.30;;;;;;7787743;22;20033;-47
2023/07/01 02:07:35;;;;;;;4.75;2.10;;;24.50;68.60;;;;;;7789294;22;20474;-51
2023/07/01 02:10:38;;;;;;;4.40;2.17;;;24.40;70.30;;;;;;7787116;22;20016;-51
2023/07/01 02:13:41;;;;;;;5.63;1.75;;;24.60;70.50;;;;;;7790469;22;20012;-50
2023/07/01 02:16:42;;;;;;;3.90;1.58;;;24.50;70.30;;;;;;7790431;22;20057;-49
2023/07/01 02:19:44;;;;;;;3.80;2.00;;;24.50;70.40;;;;;;7787814;22;20020;-49
2023/07/01 02:22:45;;;;;;;4.00;1.92;;;24.50;70.20;;;;;;7790807;22;20050;-50
2023/07/01 02:25:47;;;;;;;3.95;1.67;;;24.60;70.40;;;;;;7789475;22;20022;-47
2023/07/01 02:28:49;;;;;;;2.88;1.33;;;24.50;70.30;;;;;;7787436;22;20019;-47
2023/07/01 02:31:51;;;;;;;3.25;1.38;;;24.30;70.10;;;;;;7781939;22;20053;-50
2023/07/01 02:34:53;;;;;;;2.95;1.27;;;24.50;70.30;;;;;;7782779;22;20034;-50
2023/07/01 02:37:54;;;;;;;3.05;1.45;;;24.60;70.50;;;;;;7780449;22;20023;-50
2023/07/01 02:40:56;;;;;;;2.38;1.20;;;24.40;70.10;;;;;;7782446;22;20016;-51
2023/07/01 02:43:58;;;;;;;1.67;1.48;;;24.50;70.50;;;;;;7779573;22;20016;-47
2023/07/01 02:47:03;;;;;;;1.73;0.93;;;24.50;70.20;;;;;;7778503;22;20012;-50
2023/07/01 02:50:08;;;;;;;2.10;1.20;;;24.60;70.20;;;;;;7781626;22;20443;-52
2023/07/01 02:53:11;;;;;;;1.67;1.10;;;24.50;67.50;;;;;;7778409;22;20022;-49
2023/07/01 02:56:14;;;;;;;1.02;0.80;;;24.50;70.30;;;;;;7785968;22;20164;-51
2023/07/01 02:59:16;;;;;;;1.70;0.98;;;24.40;70.20;;;;;;7786631;22;20285;-50
2023/07/01 03:02:18;;;;;;;1.50;0.80;;;24.40;70.20;;;;;;7757845;22;20017;-46
2023/07/01 03:05:21;;;;;;;1.10;0.50;;;24.50;70.10;;;;;;7785149;22;20012;-52
2023/07/01 03:08:24;;;;;;;0.85;0.75;;;24.50;70.40;;;;;;7785110;22;20060;-51
2023/07/01 03:11:25;;;;;;;1.50;0.90;;;24.50;69.90;;;;;;7782306;22;20011;-48
2023/07/01 03:14:28;;;;;;;1.50;0.70;;;24.40;70.20;;;;;;7785110;22;20519;-48
2023/07/01 03:17:30;;;;;;;1.88;0.80;;;24.40;70.20;;;;;;7781552;22;20012;-49
2023/07/01 03:20:32;;;;;;;1.20;0.80;;;24.50;70.30;;;;;;7779465;22;20026;-49
2023/07/01 03:23:34;;;;;;;0.95;0.85;;;24.30;70.20;;;;;;7783871;22;20011;-50
2023/07/01 03:26:39;;;;;;;0.68;0.60;;;24.40;70.30;;;;;;7783810;22;20007;-47
2023/07/01 03:29:46;;;;;;;0.68;0.50;;;24.60;70.30;;;;;;7780523;22;20012;-48
2023/07/01 03:32:48;;;;;;;0.55;0.50;;;24.40;70.30;;;;;;7783262;22;20039;-51
2023/07/01 03:35:49;;;;;;;1.55;0.55;;;24.50;70.10;;;;;;7780543;22;20016;-49
2023/07/01 03:38:52;;;;;;;1.15;0.70;;;24.40;70.40;;;;;;7783101;22;20061;-51
2023/07/01 03:41:54;;;;;;;0.85;0.50;;;24.50;70.50;;;;;;7784236;22;20016;-50
2023/07/01 03:44:56;;;;;;;0.90;0.50;;;24.40;70.60;;;;;;7779518;22;20016;-45
2023/07/01 03:47:58;;;;;;;0.95;0.57;;;24.30;71.00;;;;;;7759891;22;20347;-48
2023/07/01 03:50:59;;;;;;;0.52;0.40;;;24.40;70.60;;;;;;7782362;22;20076;-46
2023/07/01 03:54:00;;;;;;;0.55;0.40;;;24.40;70.60;;;;;;7779083;22;20024;-49
2023/07/01 03:57:02;;;;;;;0.47;0.35;;;24.30;70.40;;;;;;7781810;22;20019;-49
2023/07/01 04:00:08;;;;;;;0.52;0.38;;;24.30;70.10;;;;;;7782388;22;20548;-50
2023/07/01 04:03:13;;;;;;;0.70;0.40;;;24.40;70.50;;;;;;7780007;22;20027;-50
2023/07/01 04:06:15;;;;;;;0.50;0.40;;;24.20;70.40;;;;;;7781777;22;20399;-49
2023/07/01 04:09:17;;;;;;;0.47;0.30;;;24.40;70.50;;;;;;7780830;22;20023;-50
2023/07/01 04:12:18;;;;;;;1.52;0.70;;;24.00;70.30;;;;;;7778776;22;20012;-48
2023/07/01 04:15:25;;;;;;;0.65;0.40;;;24.20;70.40;;;;;;7780988;22;20019;-45
2023/07/01 04:18:26;;;;;;;0.90;0.45;;;24.50;69.00;;;;;;7781426;22;20486;-51
2023/07/01 04:21:28;;;;;;;0.47;0.30;;;24.30;70.70;;;;;;7775634;22;20011;-55
2023/07/01 04:24:30;;;;;;;0.55;0.30;;;24.30;70.60;;;;;;7759838;22;20012;-54
2023/07/01 04:27:32;;;;;;;1.05;0.40;;;24.40;70.80;;;;;;7755769;22;20019;-55
2023/07/01 04:30:34;;;;;;;0.40;0.32;;;24.20;70.60;;;;;;7760314;22;20016;-55
2023/07/01 04:33:36;;;;;;;0.85;0.50;;;24.20;70.60;;;;;;7760726;22;20015;-55
2023/07/01 04:36:38;;;;;;;0.30;0.30;;;24.40;70.70;;;;;;7755988;22;20043;-54
2023/07/01 04:39:42;;;;;;;0.85;0.30;;;24.10;70.80;;;;;;7759445;22;20016;-55
2023/07/01 04:42:45;;;;;;;1.00;0.30;;;24.00;69.10;;;;;;7761089;22;20285;-54
2023/07/01 04:45:47;;;;;;;0.65;0.38;;;24.30;70.50;;;;;;7756763;22;20091;-55
2023/07/01 04:48:48;;;;;;;0.90;0.40;;;24.30;70.70;;;;;;7761008;22;20352;-55
2023/07/01 04:51:50;;;;;;;1.77;0.85;;;24.30;70.80;;;;;;7759986;22;20391;-55
2023/07/01 04:54:52;;;;;;;2.03;0.40;;;24.30;70.80;;;;;;7758225;22;20349;-56
2023/07/01 04:57:54;;;;;;;0.63;0.30;;;24.20;70.50;;;;;;7737031;22;20008;-54
2023/07/01 05:00:56;;;;;;;2.65;0.43;;;24.30;70.90;;;;;;7760985;22;20019;-55
2023/07/01 05:03:57;;;;;;;0.60;0.30;;;24.20;70.70;;;;;;7757201;22;20012;-55
2023/07/01 05:06:59;;;;;;;0.55;0.30;;;24.30;70.80;;;;;;7760581;22;20347;-55
2023/07/01 05:10:01;;;;;;;0.82;0.30;;;24.20;70.70;;;;;;7759560;22;20012;-55
2023/07/01 05:13:03;;;;;;;1.55;0.30;;;24.20;70.60;;;;;;7757673;22;20016;-53
2023/07/01 05:16:06;;;;;;;1.42;0.60;;;23.80;70.80;;;;;;7760562;22;20020;-54
2023/07/01 05:19:07;;;;;;;1.23;0.43;;;24.10;71.20;;;;;;7760385;22;20060;-54
2023/07/01 05:22:09;;;;;;;1.95;0.25;;;23.70;71.80;;;;;;7757745;22;20485;-54
2023/07/01 05:25:11;;;;;;;2.20;0.60;;;23.90;72.30;;;;;;7759824;22;20019;-55
2023/07/01 05:28:12;;;;;;;3.35;0.40;;;23.90;72.90;;;;;;7760112;22;20019;-56
2023/07/01 05:31:15;;;;;;;0.70;0.30;;;23.40;72.80;;;;;;7759549;22;20012;-55
2023/07/01 05:34:16;;;;;;;1.38;0.55;;;23.60;72.80;;;;;;7761111;22;20028;-57
2023/07/01 05:37:18;;;;;;;0.98;0.38;;;23.60;73.00;;;;;;7758208;22;20386;-54
2023/07/01 05:40:19;;;;;;;1.15;0.47;;;23.60;73.80;;;;;;7761295;22;20038;-56
2023/07/01 05:43:21;;;;;;;3.92;0.38;;;23.50;73.60;;;;;;7760608;22;20366;-56
2023/07/01 05:46:26;;;;;;;0.60;0.30;;;23.60;72.80;;;;;;7760456;22;20436;-56
2023/07/01 05:49:28;;;;;;;1.63;0.50;;;23.30;69.70;;;;;;7762966;22;20020;-53
2023/07/01 05:52:29;;;;;;;1.08;0.40;;;23.30;72.40;;;;;;7762477;22;20348;-55
2023/07/01 05:55:31;;;;;;;2.88;0.30;;;23.20;72.30;;;;;;7758521;22;20457;-56
2023/07/01 05:58:33;;;;;;;1.05;0.65;;;23.50;72.60;;;;;;7762496;22;20022;-55
2023/07/01 06:01:35;;;;;;;1.92;0.65;;;23.40;72.30;;;;;;7760557;22;20064;-55
2023/07/01 06:04:37;;;;;;;1.35;0.50;;;23.40;72.50;;;;;;7759026;22;20036;-55
2023/07/01 06:07:39;;;;;;;1.13;0.68;;;23.40;72.50;;;;;;7737276;22;20012;-55
2023/07/01 06:10:42;;;;;;;4.55;0.90;;;23.30;72.50;;;;;;7761191;22;20019;-54
2023/07/01 06:13:44;;;;;;;1.40;0.70;;;23.40;72.00;;;;;;7757336;22;20196;-56
2023/07/01 06:16:47;;;;;;;2.78;0.80;;;23.30;72.10;;;;;;7736480;22;20091;-55
2023/07/01 06:19:48;;;;;;;1.63;0.85;;;23.30;71.20;;;;;;7760689;22;20016;-56
2023/07/01 06:22:50;;;;;;;;;;;23.20;71.00;;;;;;7758915;22;20011;-55
2023/07/01 06:25:54;;;;;;;2.70;1.10;;;23.20;71.30;;;;;;7761309;22;20360;-50
2023/07/01 06:28:56;;;;;;;4.75;1.30;;;23.10;69.80;;;;;;7760729;22;20019;-55
2023/07/01 06:31:58;;;;;;;3.13;1.40;;;23.20;71.60;;;;;;7762181;22;20012;-54
2023/07/01 06:34:59;;;;;;;2.90;1.48;;;22.80;71.90;;;;;;7763995;22;20068;-56
2023/07/01 06:38:06;;;;;;;3.42;1.20;;;22.80;71.80;;;;;;7760832;22;20022;-55
2023/07/01 06:41:07;;;;;;;4.03;1.73;;;22.70;69.60;;;;;;7762397;22;20020;-56
2023/07/01 06:44:12;;;;;;;4.85;1.30;;;23.00;72.70;;;;;;7759908;22;20019;-55
2023/07/01 06:47:16;;;;;;;3.28;1.67;;;22.90;73.60;;;;;;7757826;22;20503;-55
2023/07/01 06:50:19;;;;;;;3.10;1.58;;;23.00;74.30;;;;;;7761228;22;20020;-54
2023/07/01 06:53:21;;;;;;;3.13;1.55;;;22.90;75.00;;;;;;7762626;22;20019;-55
2023/07/01 06:56:22;;;;;;;2.05;1.55;;;22.70;75.00;;;;;;7758016;22;20020;-54
2023/07/01 06:59:24;;;;;;;3.75;1.70;;;22.90;75.10;;;;;;7764025;22;20015;-56
2023/07/01 07:02:26;;;;;;;;;;;22.80;75.40;;;;;;7764409;22;20361;-54
2023/07/01 07:05:30;;;;;;;2.90;1.70;;;23.00;75.70;;;;;;7760211;22;20286;-56
2023/07/01 07:08:31;;;;;;;3.72;2.13;;;22.60;75.40;;;;;;7763111;22;20359;-56
2023/07/01 07:11:34;;;;;;;5.10;2.10;;;22.70;75.60;;;;;;7763700;22;20020;-55
2023/07/01 07:14:35;;;;;;;3.42;2.30;;;22.70;75.40;;;;;;7761098;22;20015;-54
2023/07/01 07:17:41;;;;;;;;;;;22.80;75.50;;;;;;7707856;22;20016;-55
2023/07/01 07:20:44;;;;;;;6.50;3.00;;;22.80;73.00;;;;;;7754409;22;19953;-56
2023/07/01 07:23:46;;;;;;;5.22;2.72;;;22.60;75.40;;;;;;7842575;22;20064;-55
2023/07/01 07:26:55;;;;;;;4.72;2.88;;;22.80;75.20;;;;;;7762720;22;20019;-55
2023/07/01 07:29:57;;;;;;;5.97;3.35;;;22.80;75.20;;;;;;7759965;22;20096;-53
2023/07/01 07:33:07;;;;;;;6.95;3.50;;;22.80;75.20;;;;;;7763574;22;20012;-55
2023/07/01 07:36:09;;;;;;;7.32;3.35;;;22.70;75.00;;;;;;7763142;22;20011;-55
2023/07/01 07:39:12;;;;;;;;;;;22.90;75.10;;;;;;7761097;22;20019;-54
2023/07/01 07:42:13;;;;;;;4.88;3.78;;;23.10;75.40;;;;;;7740024;22;20014;-56
2023/07/01 07:45:20;;;;;;;4.78;3.47;;;22.80;74.80;;;;;;7762704;22;20082;-56
2023/07/01 07:48:22;;;;;;;6.13;3.70;;;22.90;75.10;;;;;;7759679;22;20012;-55
2023/07/01 07:51:23;;;;;;;7.30;4.72;;;22.80;74.70;;;;;;7753821;22;20023;-55
2023/07/01 07:54:28;;;;;;;7.38;5.30;;;22.90;74.90;;;;;;7762558;22;20386;-55
2023/07/01 07:57:29;;;;;;;6.63;4.18;;;22.90;74.70;;;;;;7761179;22;20571;-55
2023/07/01 08:00:31;;;;;;;9.68;5.10;;;22.90;74.70;;;;;;7762566;22;20044;-54
2023/07/01 08:03:36;;;;;;;8.43;4.40;;;23.00;74.60;;;;;;7761119;22;20015;-55
2023/07/01 08:06:38;;;;;;;9.35;5.60;;;22.90;74.30;;;;;;7762596;22;20348;-54
2023/07/01 08:09:39;;;;;;;;;;;22.90;74.30;;;;;;7762583;22;20019;-56
2023/07/01 08:12:41;;;;;;;;;;;23.00;74.60;;;;;;7760432;22;19916;-55
2023/07/01 08:15:43;;;;;;;12.73;8.00;;;23.00;74.50;;;;;;7763024;22;20343;-56
2023/07/01 08:18:45;;;;;;;18.83;11.35;;;22.70;74.30;;;;;;7762826;22;20012;-56
2023/07/01 08:21:48;;;;;;;19.48;11.82;;;23.00;72.70;;;;;;7759883;22;20008;-56
2023/07/01 08:24:49;;;;;;;19.10;11.88;;;23.00;73.50;;;;;;7762205;22;20018;-55
2023/07/01 08:27:51;;;;;;;;;;;22.90;73.10;;;;;;7763219;22;20019;-54
2023/07/01 08:30:52;;;;;;;16.45;11.15;;;23.00;73.70;;;;;;7759295;22;20325;-57
2023/07/01 08:33:55;;;;;;;17.83;12.00;;;22.70;73.00;;;;;;7762794;22;20260;-56
2023/07/01 08:36:57;;;;;;;25.20;15.15;;;22.90;72.90;;;;;;7762564;22;20019;-55
2023/07/01 08:39:58;;;;;;;;;;;22.90;72.40;;;;;;7756304;22;20448;-55
2023/07/01 08:43:10;;;;;;;21.88;13.90;;;22.80;72.50;;;;;;7763065;22;20651;-56
2023/07/01 08:46:14;;;;;;;22.73;13.93;;;22.40;72.00;;;;;;7741252;22;20019;-56
2023/07/01 08:49:21;;;;;;;26.23;14.10;;;22.80;72.20;;;;;;7841625;22;20384;-56
2023/07/01 08:52:27;;;;;;;21.40;14.43;;;22.80;71.50;;;;;;7762388;22;20019;-54
2023/07/01 08:55:30;;;;;;;24.58;15.75;;;22.70;71.30;;;;;;7759723;22;20448;-56
2023/07/01 08:58:32;;;;;;;25.25;15.27;;;22.40;71.00;;;;;;7739588;22;20016;-56
2023/07/01 09:01:36;;;;;;;20.08;13.13;;;22.40;70.90;;;;;;7762723;22;20023;-54
2023/07/01 09:04:39;;;;;;;23.05;15.40;;;22.60;70.90;;;;;;7759595;22;20016;-57
2023/07/01 09:07:43;;;;;;;20.98;14.82;;;22.70;70.50;;;;;;7762234;22;20092;-55
2023/07/01 09:10:45;;;;;;;26.67;16.73;;;22.70;70.20;;;;;;7761863;22;20609;-54
2023/07/01 09:13:55;;;;;;;25.45;16.77;;;22.80;70.10;;;;;;7759579;22;20012;-54
2023/07/01 09:16:56;;;;;;;25.98;15.35;;;22.80;69.80;;;;;;7741540;22;20061;-54
2023/07/01 09:19:59;;;;;;;;;;;22.50;69.00;;;;;;7763761;22;20012;-56
2023/07/01 09:23:01;;;;;;;25.05;15.55;;;22.90;69.20;;;;;;7841989;22;19926;-56
2023/07/01 09:26:14;;;;;;;26.52;16.50;;;22.80;68.80;;;;;;7714933;22;20080;-55
2023/07/01 09:29:16;;;;;;;25.63;16.23;;;22.70;67.70;;;;;;7754972;22;20026;-55
2023/07/01 09:32:28;;;;;;;27.48;17.35;;;22.70;67.50;;;;;;7764354;22;20646;-56
2023/07/01 09:35:41;;;;;;;27.08;16.33;;;22.40;66.80;;;;;;7764583;22;20023;-55
2023/07/01 09:38:51;;;;;;;28.33;17.80;;;22.80;67.20;;;;;;7764757;22;20012;-55
2023/07/01 09:42:02;;;;;;;30.70;16.90;;;22.40;66.50;;;;;;7763362;22;20486;-55
2023/07/01 09:45:06;;;;;;;28.35;16.55;;;22.70;66.90;;;;;;7761412;22;20008;-56
2023/07/01 09:48:14;;;;;;;28.73;17.48;;;22.70;66.90;;;;;;7762728;22;20019;-54
2023/07/01 09:51:16;;;;;;;26.98;16.13;;;22.70;66.50;;;;;;7763642;22;20027;-55
2023/07/01 09:54:27;;;;;;;32.20;17.02;;;22.50;66.10;;;;;;7761252;22;20008;-56
2023/07/01 09:57:30;;;;;;;24.92;15.45;;;22.70;66.40;;;;;;7763723;22;20011;-55
2023/07/01 10:00:35;;;;;;;23.60;15.43;;;22.90;66.50;;;;;;7763346;22;20012;-55
2023/07/01 10:03:37;;;;;;;26.45;15.20;;;22.80;66.30;;;;;;7762133;22;20019;-54
2023/07/01 10:06:44;;;;;;;20.67;15.00;;;22.50;66.00;;;;;;7764569;22;20064;-56
2023/07/01 10:09:47;;;;;;;24.48;14.55;;;22.90;66.10;;;;;;7760111;22;20023;-55
2023/07/01 10:12:54;;;;;;;23.30;14.10;;;22.70;65.90;;;;;;7763478;22;20019;-56
2023/07/01 10:15:56;;;;;;;19.85;13.85;;;22.70;66.00;;;;;;7763401;22;20020;-55
2023/07/01 10:19:00;;;;;;;22.90;12.90;;;22.70;65.70;;;;;;7816222;22;20096;-55
2023/07/01 10:22:20;;;;;;;24.20;12.95;;;23.00;65.80;;;;;;7764368;22;20012;-55
2023/07/01 10:25:30;;;;;;;21.88;12.32;;;22.90;65.60;;;;;;7761602;22;20016;-56
2023/07/01 10:28:34;;;;;;;22.20;12.63;;;22.80;66.00;;;;;;7739891;22;20452;-56
2023/07/01 10:32:12;;;;;;;19.88;12.30;;;22.70;65.50;;;;;;7763324;22;20518;-56
2023/07/01 10:35:15;;;;;;;18.20;11.50;;;22.90;65.00;;;;;;7744208;22;20011;-55
2023/07/01 10:38:21;;;;;;;23.92;12.57;;;22.80;64.80;;;;;;7764571;22;20099;-56
2023/07/01 10:41:43;;;;;;;22.02;12.18;;;22.70;64.50;;;;;;7759608;22;20016;-57
2023/07/01 10:44:44;;;;;;;;;;;23.00;64.50;;;;;;7764313;22;20023;-57
2023/07/01 10:48:12;;;;;;;20.05;11.27;;;23.10;65.10;;;;;;7762887;22;20308;-55
2023/07/01 10:51:14;;;;;;;17.73;11.25;;;22.90;64.40;;;;;;7740106;22;20026;-56
2023/07/01 10:54:29;;;;;;;19.77;11.35;;;22.80;64.20;;;;;;7756824;22;20325;-55
2023/07/01 10:57:33;;;;;;;19.55;11.55;;;23.00;64.00;;;;;;7734375;22;20195;-56
2023/07/01 11:00:37;;;;;;;17.63;11.88;;;22.80;63.80;;;;;;7759979;22;20076;-56
2023/07/01 11:03:56;;;;;;;19.35;11.55;;;22.80;63.80;;;;;;7734822;22;20039;-56
2023/07/01 11:06:59;;;;;;;19.58;11.52;;;23.10;63.90;;;;;;7738530;22;20016;-56
2023/07/01 11:10:06;;;;;;;24.35;12.23;;;23.00;63.70;;;;;;7758311;22;20018;-56
2023/07/01 11:13:07;;;;;;;20.83;13.02;;;23.00;63.60;;;;;;7757052;22;20016;-54
2023/07/01 11:16:11;;;;;;;18.98;11.40;;;23.00;63.70;;;;;;7757231;22;20015;-56
2023/07/01 11:19:16;;;;;;;24.23;13.02;;;23.00;63.60;;;;;;7760390;22;20299;-53
2023/07/01 11:22:18;;;;;;;23.73;13.18;;;23.00;63.40;;;;;;7732327;22;20012;-55
2023/07/01 11:25:19;;;;;;;20.60;13.13;;;22.90;63.40;;;;;;7759813;22;20036;-56
2023/07/01 11:28:31;;;;;;;26.10;14.15;;;23.20;63.80;;;;;;7758236;22;20360;-56
2023/07/01 11:31:34;;;;;;;23.52;13.98;;;23.20;63.50;;;;;;7731591;22;20348;-56
2023/07/01 11:34:39;;;;;;;19.90;13.70;;;23.10;63.20;;;;;;7756806;22;20012;-55
2023/07/01 11:37:43;;;;;;;21.55;12.57;;;23.10;60.80;;;;;;7756620;22;20023;-56
2023/07/01 11:40:46;;;;;;;24.58;14.13;;;22.10;62.40;;;;;;7759213;22;20068;-55
2023/07/01 11:43:51;;;;;;;25.77;15.30;;;23.30;63.40;;;;;;7758822;22;20031;-56
2023/07/01 11:46:54;;;;;;;28.05;16.98;;;23.20;60.60;;;;;;7756478;22;20020;-56
2023/07/01 11:50:04;;;;;;;25.17;16.92;;;22.90;62.70;;;;;;7737074;22;20038;-56
2023/07/01 11:53:06;;;;;;;26.08;16.65;;;23.20;62.60;;;;;;7758969;22;20020;-56
2023/07/01 11:56:16;;;;;;;30.58;17.17;;;23.30;62.80;;;;;;7758535;22;20401;-57
2023/07/01 11:59:29;;;;;;;29.83;18.25;;;23.20;62.50;;;;;;7759653;22;20015;-56
2023/07/01 12:02:31;;;;;;;28.48;17.83;;;23.40;62.80;;;;;;7750491;22;20066;-55
2023/07/01 12:05:34;;;;;;;30.80;16.63;;;23.20;62.50;;;;;;7735806;22;20045;-56
2023/07/01 12:08:49;;;;;;;24.25;16.38;;;23.50;62.80;;;;;;7759393;22;20043;-55
2023/07/01 12:12:10;;;;;;;28.25;17.90;;;22.90;62.20;;;;;;7757243;22;20068;-55
2023/07/01 12:15:11;;;;;;;25.13;15.77;;;23.00;62.30;;;;;;7759858;22;20011;-55
2023/07/01 12:18:21;;;;;;;26.95;16.48;;;23.40;62.10;;;;;;7755964;22;20353;-56
2023/07/01 12:21:27;;;;;;;29.83;17.95;;;23.50;62.20;;;;;;7759864;22;20019;-55
2023/07/01 12:24:32;;;;;;;29.33;18.20;;;23.40;62.00;;;;;;7760327;22;20528;-56
2023/07/01 12:27:34;;;;;;;25.45;17.45;;;23.50;61.90;;;;;;7758705;22;20419;-55
2023/07/01 12:30:36;;;;;;;28.30;17.65;;;23.70;61.70;;;;;;7759861;22;20330;-56
2023/07/01 12:33:37;;;;;;;26.33;15.98;;;23.60;62.00;;;;;;7758888;22;20012;-52
2023/07/01 12:36:39;;;;;;;31.88;18.15;;;23.40;61.80;;;;;;7758688;22;20456;-55
2023/07/01 12:39:44;;;;;;;28.10;17.20;;;23.60;62.10;;;;;;7759298;22;20038;-55
2023/07/01 12:42:47;;;;;;;27.58;18.00;;;23.70;61.90;;;;;;7755563;22;20011;-55
2023/07/01 12:45:49;;;;;;;30.55;18.55;;;23.70;62.10;;;;;;7759438;22;20079;-55
2023/07/01 12:48:51;;;;;;;25.67;15.57;;;23.70;62.20;;;;;;7760212;22;20046;-56
2023/07/01 12:51:53;;;;;;;;;;;23.60;62.10;;;;;;7756810;22;20465;-55
2023/07/01 12:54:55;;;;;;;24.50;15.13;;;23.60;62.30;;;;;;7759347;22;19979;-55
2023/07/01 12:58:00;;;;;;;25.98;17.88;;;23.70;62.20;;;;;;7758386;22;20020;-56
2023/07/01 13:01:01;;;;;;;33.17;21.17;;;23.60;62.00;;;;;;7756466;22;20012;-56
2023/07/01 13:04:08;;;;;;;34.55;22.67;;;23.60;62.30;;;;;;7759675;22;20229;-54
2023/07/01 13:07:16;;;;;;;33.65;21.48;;;23.70;62.30;;;;;;7758848;22;20039;-55
2023/07/01 13:10:22;;;;;;;32.45;22.13;;;23.90;62.50;;;;;;7758378;22;20045;-53
2023/07/01 13:13:25;;;;;;;34.33;21.92;;;23.60;62.10;;;;;;7737180;22;20036;-55
2023/07/01 13:16:30;;;;;;;36.72;23.40;;;23.60;62.50;;;;;;7756027;22;20026;-54
2023/07/01 13:19:32;;;;;;;38.95;24.13;;;23.70;62.50;;;;;;7706720;22;20473;-55
2023/07/01 13:22:33;;;;;;;34.97;22.35;;;23.70;62.70;;;;;;7759196;22;20072;-56
2023/07/01 13:25:35;;;;;;;36.20;22.88;;;23.70;62.50;;;;;;7752520;22;20011;-55
2023/07/01 13:28:37;;;;;;;37.65;22.83;;;23.90;63.00;;;;;;7757646;22;20015;-55
2023/07/01 13:31:41;;;;;;;36.75;23.77;;;23.40;62.80;;;;;;7757527;22;20020;-54
2023/07/01 13:34:44;;;;;;;36.90;24.10;;;23.70;63.00;;;;;;7755532;22;20044;-53
2023/07/01 13:37:49;;;;;;;37.28;23.17;;;23.50;62.90;;;;;;7759202;22;20097;-55
2023/07/01 13:40:52;;;;;;;35.17;23.55;;;23.70;63.00;;;;;;7757153;22;20544;-54
2023/07/01 13:44:01;;;;;;;38.42;23.33;;;23.70;63.40;;;;;;7755534;22;20016;-54
2023/07/01 13:47:04;;;;;;;35.42;23.60;;;23.90;63.20;;;;;;7735530;22;20035;-55
2023/07/01 13:50:11;;;;;;;34.72;22.65;;;23.60;62.90;;;;;;7758066;22;20051;-55
2023/07/01 13:53:12;;;;;;;35.33;24.88;;;23.80;63.20;;;;;;7838990;22;20012;-55
2023/07/01 13:56:18;;;;;;;34.40;22.67;;;23.80;63.10;;;;;;7756117;22;20023;-55
2023/07/01 13:59:24;;;;;;;32.75;22.52;;;23.70;62.90;;;;;;7755943;22;20531;-53
2023/07/01 14:02:25;;;;;;;33.85;23.40;;;23.80;60.40;;;;;;7760717;22;20023;-56
2023/07/01 14:05:39;;;;;;;33.45;22.88;;;23.60;63.00;;;;;;7761743;22;20012;-56
2023/07/01 14:08:40;;;;;;;31.15;22.23;;;23.80;63.20;;;;;;7756660;22;20012;-55
2023/07/01 14:11:44;;;;;;;33.38;23.08;;;23.60;63.40;;;;;;7754084;22;20361;-54
2023/07/01 14:14:46;;;;;;;34.88;23.45;;;23.70;63.00;;;;;;7760155;22;20012;-54
2023/07/01 14:17:53;;;;;;;35.28;23.13;;;23.80;63.80;;;;;;7762520;22;20378;-55
2023/07/01 14:20:58;;;;;;;36.00;24.35;;;23.80;62.90;;;;;;7758699;22;20016;-54
2023/07/01 14:24:06;;;;;;;37.72;23.65;;;23.80;63.20;;;;;;7734587;22;20321;-55
2023/07/01 14:27:21;;;;;;;38.38;23.88;;;23.80;63.00;;;;;;7738110;22;20012;-55
2023/07/01 14:30:52;;;;;;;34.33;23.40;;;23.90;63.80;;;;;;7741791;22;20027;-56
2023/07/01 14:33:55;;;;;;;37.33;23.88;;;24.00;63.60;;;;;;7737059;22;20076;-56
2023/07/01 14:36:58;;;;;;;33.97;24.25;;;23.60;63.40;;;;;;7759493;22;20364;-52
2023/07/01 14:40:00;;;;;;;38.55;24.50;;;24.60;64.10;;;;;;7757578;22;20043;-54
2023/07/01 14:43:06;;;;;;;35.10;23.33;;;23.80;63.70;;;;;;7761252;22;20023;-55
2023/07/01 14:46:08;;;;;;;39.20;23.80;;;24.00;63.70;;;;;;7736897;22;20012;-56
2023/07/01 14:49:11;;;;;;;40.50;24.27;;;23.90;63.90;;;;;;7757901;22;20016;-56
2023/07/01 14:52:12;;;;;;;34.88;22.73;;;24.80;64.40;;;;;;7737816;22;20087;-55
2023/07/01 14:55:15;;;;;;;38.42;22.52;;;23.90;64.20;;;;;;7761191;22;20015;-55
2023/07/01 14:58:17;;;;;;;39.78;25.40;;;23.90;63.70;;;;;;7756846;22;20015;-54
2023/07/01 15:01:20;;;;;;;36.97;24.48;;;23.70;63.70;;;;;;7761398;22;20055;-55
2023/07/01 15:04:22;;;;;;;32.60;22.75;;;24.10;63.90;;;;;;7815273;22;20017;-55
2023/07/01 15:07:24;;;;;;;37.47;23.92;;;23.90;63.90;;;;;;7760098;22;20321;-54
2023/07/01 15:10:35;;;;;;;38.17;23.00;;;24.00;63.90;;;;;;7759905;22;20043;-56
2023/07/01 15:13:38;;;;;;;39.22;23.42;;;24.00;61.30;;;;;;7757422;22;20060;-55
2023/07/01 15:16:41;;;;;;;36.83;23.45;;;23.90;63.70;;;;;;7761382;22;20019;-55
2023/07/01 15:19:42;;;;;;;37.08;23.95;;;23.90;63.80;;;;;;7761546;22;20012;-55
2023/07/01 15:22:45;;;;;;;36.50;23.77;;;23.90;63.80;;;;;;7757508;22;20012;-56
2023/07/01 15:25:50;;;;;;;39.00;25.65;;;24.00;63.80;;;;;;7760881;22;20068;-56
2023/07/01 15:28:52;;;;;;;38.72;24.05;;;24.00;63.80;;;;;;7761088;22;20011;-54
2023/07/01 15:31:54;;;;;;;36.40;23.63;;;23.70;63.70;;;;;;7757495;22;20031;-55
2023/07/01 15:34:57;;;;;;;34.70;24.55;;;23.90;63.90;;;;;;7760599;22;20360;-55
2023/07/01 15:37:58;;;;;;;36.35;23.85;;;23.90;64.00;;;;;;7760664;22;20364;-54
2023/07/01 15:41:00;;;;;;;35.50;22.50;;;23.90;64.00;;;;;;7756696;22;20019;-56
2023/07/01 15:44:02;;;;;;;37.40;23.40;;;23.80;64.10;;;;;;7759671;22;20019;-55
2023/07/01 15:47:07;;;;;;;37.20;23.90;;;23.90;64.30;;;;;;7761495;22;20016;-56
2023/07/01 15:50:08;;;;;;;33.75;22.50;;;23.90;64.70;;;;;;7758586;22;20087;-55